Time;durP1;ratioP1;P1;durP2;ratioP2;P2;SDS_P1;SDS_P2;PMS_P1;PMS_P2;Temp;Humidity;BMP_temperature;BMP_pressure;BME280_temperature;BME280_humidity;BME280_pressure;Samples;Min_cycle;Max_cycle;Signal;HPM_P1;HPM_P2
2023/10/06 00:01:21;;;;;;;7.90;4.20;;;15.90;62.30;;;;;;5027340;28;20243;-30
2023/10/06 00:03:57;;;;;;;10.67;4.17;;;15.90;62.40;;;;;;5024969;28;20205;-30
2023/10/06 00:06:27;;;;;;;8.53;4.30;;;15.80;62.30;;;;;;5023133;28;20251;-30
2023/10/06 00:08:57;;;;;;;10.63;4.10;;;15.80;62.30;;;;;;5023473;28;20459;-30
2023/10/06 00:11:29;;;;;;;11.37;4.30;;;15.80;62.40;;;;;;5040878;28;20269;-30
2023/10/06 00:14:07;;;;;;;9.27;4.60;;;15.80;62.40;;;;;;5042711;28;20204;-30
2023/10/06 00:16:40;;;;;;;8.97;4.60;;;15.80;62.40;;;;;;5030229;28;20227;-30
2023/10/06 00:19:31;;;;;;;10.23;4.30;;;15.70;62.40;;;;;;5025263;28;20656;-30
2023/10/06 00:24:37;;;;;;;8.43;4.17;;;15.70;62.50;;;;;;5026669;28;20213;-30
2023/10/06 00:27:10;;;;;;;11.40;4.73;;;15.70;62.50;;;;;;5042128;28;20193;-30
2023/10/06 00:29:43;;;;;;;11.90;4.47;;;15.70;62.50;;;;;;5038718;28;20289;-30
2023/10/06 00:32:22;;;;;;;7.60;4.00;;;15.60;62.50;;;;;;5040680;28;20220;-30
2023/10/06 00:34:52;;;;;;;8.10;4.57;;;15.60;62.50;;;;;;5037018;28;20224;-30
2023/10/06 00:37:23;;;;;;;7.70;4.30;;;15.60;62.50;;;;;;5033601;28;20208;-30
2023/10/06 00:39:57;;;;;;;8.50;4.00;;;15.60;62.60;;;;;;5040196;28;20240;-30
2023/10/06 00:42:29;;;;;;;14.20;4.53;;;15.60;62.60;;;;;;5044459;28;20196;-30
2023/10/06 00:45:05;;;;;;;10.30;3.80;;;15.50;62.60;;;;;;5035770;28;20212;-30
2023/10/06 00:47:38;;;;;;;11.77;4.30;;;15.50;62.60;;;;;;5024059;28;20288;-30
2023/10/06 00:50:11;;;;;;;7.47;4.27;;;15.50;62.70;;;;;;5024849;28;20204;-30
2023/10/06 00:52:42;;;;;;;9.10;4.47;;;15.50;63.40;;;;;;5025185;28;20220;-30
2023/10/06 00:55:14;;;;;;;10.10;4.57;;;15.50;62.70;;;;;;5023237;28;20687;-30
2023/10/06 00:57:50;;;;;;;8.33;3.80;;;15.40;62.70;;;;;;5023446;28;20745;-30
2023/10/06 01:00:21;;;;;;;6.70;3.90;;;15.40;62.60;;;;;;5032824;28;20226;-28
2023/10/06 01:02:51;;;;;;;6.73;3.80;;;15.40;62.70;;;;;;5026364;28;20386;-28
2023/10/06 01:05:19;;;;;;;9.40;4.00;;;15.40;62.70;;;;;;5037641;28;20204;-28
2023/10/06 01:07:46;;;;;;;9.77;4.30;;;15.40;62.80;;;;;;5030004;28;20655;-28
2023/10/06 01:10:24;;;;;;;6.88;4.00;;;15.30;62.70;;;;;;5031601;28;20204;-28
2023/10/06 01:12:52;;;;;;;7.95;3.47;;;15.30;62.80;;;;;;5036224;28;20303;-28
2023/10/06 01:15:20;;;;;;;11.32;3.78;;;15.30;62.70;;;;;;5025464;28;20208;-28
2023/10/06 01:17:53;;;;;;;8.93;4.18;;;15.30;62.80;;;;;;5044116;28;20204;-30
2023/10/06 01:20:41;;;;;;;9.38;4.13;;;15.30;62.90;;;;;;5043502;28;20274;-30
2023/10/06 01:23:19;;;;;;;9.43;4.40;;;15.30;62.90;;;;;;5040776;28;20620;-30
2023/10/06 01:25:59;;;;;;;13.20;3.80;;;15.20;62.80;;;;;;5039511;28;20193;-30
2023/10/06 01:28:34;;;;;;;4.90;3.55;;;15.20;62.80;;;;;;5037333;28;20223;-30
2023/10/06 01:31:02;;;;;;;10.45;4.00;;;15.20;62.90;;;;;;5030627;28;20284;-30
2023/10/06 01:33:32;;;;;;;8.75;4.10;;;15.20;62.90;;;;;;5035676;28;20207;-30
2023/10/06 01:36:01;;;;;;;8.77;3.63;;;15.10;62.90;;;;;;5043901;28;20595;-30
2023/10/06 01:38:29;;;;;;;11.55;4.63;;;15.10;62.90;;;;;;5042782;28;20431;-30
2023/10/06 01:41:02;;;;;;;7.95;4.30;;;15.10;62.90;;;;;;5025744;28;20216;-30
2023/10/06 01:43:33;;;;;;;9.82;4.20;;;15.10;63.00;;;;;;5022855;28;20299;-30
2023/10/06 01:46:00;;;;;;;8.67;4.33;;;15.10;63.00;;;;;;5025593;28;20224;-30
2023/10/06 01:48:31;;;;;;;7.50;3.77;;;15.10;63.00;;;;;;5043433;28;20230;-30
2023/10/06 01:51:00;;;;;;;12.17;3.87;;;15.00;62.90;;;;;;5041707;28;20254;-29
2023/10/06 01:53:32;;;;;;;7.13;3.70;;;15.00;62.90;;;;;;5044003;28;20196;-28
2023/10/06 01:56:06;;;;;;;8.77;4.80;;;15.00;63.00;;;;;;5038793;28;20247;-28
2023/10/06 01:58:39;;;;;;;8.30;3.00;;;15.00;63.00;;;;;;5029460;28;20221;-28
2023/10/06 02:01:09;;;;;;;8.87;4.07;;;15.00;63.10;;;;;;5024143;28;20931;-28
2023/10/06 02:03:38;;;;;;;8.60;3.60;;;15.00;63.10;;;;;;5008642;28;20223;-28
2023/10/06 02:06:13;;;;;;;8.67;3.10;;;15.00;63.20;;;;;;5024171;28;20203;-28
2023/10/06 02:08:43;;;;;;;7.73;3.60;;;15.00;63.20;;;;;;5025843;28;20267;-28
2023/10/06 02:11:12;;;;;;;7.33;3.30;;;15.00;63.20;;;;;;5024431;28;20221;-29
2023/10/06 02:13:42;;;;;;;6.80;3.60;;;14.90;63.10;;;;;;5031497;28;20205;-29
2023/10/06 02:16:17;;;;;;;8.10;3.30;;;14.90;63.20;;;;;;5033769;28;20777;-28
2023/10/06 02:18:47;;;;;;;8.83;3.23;;;15.00;63.30;;;;;;5042271;28;20743;-28
2023/10/06 02:21:14;;;;;;;8.20;3.63;;;14.90;63.20;;;;;;5026751;28;20523;-28
2023/10/06 02:23:43;;;;;;;8.13;3.10;;;14.90;63.20;;;;;;5011433;28;20205;-28
2023/10/06 02:26:12;;;;;;;5.43;3.37;;;14.90;63.20;;;;;;5032844;28;20215;-29
2023/10/06 02:28:43;;;;;;;7.90;3.63;;;14.90;63.30;;;;;;5022638;28;20224;-28
2023/10/06 02:31:12;;;;;;;7.60;3.90;;;14.90;63.30;;;;;;5037694;28;20204;-28
2023/10/06 02:33:46;;;;;;;5.70;3.70;;;14.90;63.30;;;;;;5046814;28;20235;-28
2023/10/06 02:36:22;;;;;;;7.63;3.63;;;14.90;63.30;;;;;;5047407;28;20199;-28
2023/10/06 02:38:51;;;;;;;7.40;3.80;;;14.90;63.30;;;;;;5049325;28;20311;-28
2023/10/06 02:41:21;;;;;;;8.70;3.80;;;14.90;63.30;;;;;;5042206;28;20595;-28
2023/10/06 02:43:51;;;;;;;8.57;4.00;;;14.90;63.40;;;;;;5042106;28;20218;-28
2023/10/06 02:46:23;;;;;;;9.13;3.50;;;14.90;63.40;;;;;;5046198;28;20219;-28
2023/10/06 02:48:55;;;;;;;12.83;3.80;;;14.90;63.50;;;;;;5047323;28;20221;-28
2023/10/06 02:51:32;;;;;;;8.47;3.50;;;14.80;63.40;;;;;;5043632;28;20201;-28
2023/10/06 02:57:04;;;;;;;7.23;3.63;;;14.80;63.40;;;;;;5026725;28;20217;-27
2023/10/06 02:59:34;;;;;;;9.23;3.90;;;14.80;63.40;;;;;;5044636;28;20223;-28
2023/10/06 03:02:15;;;;;;;8.60;3.73;;;14.80;63.50;;;;;;5041161;28;20236;-28
2023/10/06 03:04:49;;;;;;;9.57;3.93;;;14.70;63.50;;;;;;5033325;28;20224;-28
2023/10/06 03:07:18;;;;;;;9.53;3.80;;;14.70;63.50;;;;;;5028842;28;20204;-28
2023/10/06 03:09:49;;;;;;;9.00;3.53;;;14.70;63.50;;;;;;5042832;28;20675;-28
2023/10/06 03:12:26;;;;;;;7.83;3.97;;;14.70;63.50;;;;;;5026877;28;20208;-28
2023/10/06 03:14:54;;;;;;;8.70;3.37;;;14.70;63.60;;;;;;5024648;28;20647;-28
2023/10/06 03:17:22;;;;;;;9.10;3.37;;;14.70;63.60;;;;;;5039627;28;20232;-28
2023/10/06 03:22:45;;;;;;;7.60;3.47;;;14.70;63.70;;;;;;5028807;28;20225;-28
2023/10/06 03:25:16;;;;;;;6.20;3.67;;;14.60;63.60;;;;;;5038420;28;20219;-28
2023/10/06 03:27:52;;;;;;;13.70;3.83;;;14.60;63.60;;;;;;5045448;28;20204;-28
2023/10/06 03:30:28;;;;;;;6.77;3.53;;;14.60;63.70;;;;;;5041897;28;20230;-28
2023/10/06 03:32:58;;;;;;;9.80;4.20;;;14.60;63.70;;;;;;5026246;28;20220;-28
2023/10/06 03:35:48;;;;;;;11.27;3.90;;;14.60;63.70;;;;;;5025735;28;20225;-28
2023/10/06 03:46:19;;;;;;;9.73;3.60;;;14.60;63.80;;;;;;5037868;28;20296;-28
2023/10/06 03:48:50;;;;;;;7.07;3.40;;;14.50;63.80;;;;;;5027391;28;20241;-28
2023/10/06 03:51:20;;;;;;;8.20;4.07;;;14.50;63.80;;;;;;5028032;28;20228;-28
2023/10/06 03:53:51;;;;;;;7.63;3.87;;;14.50;63.80;;;;;;5009764;28;20300;-28
2023/10/06 03:56:21;;;;;;;10.77;3.63;;;14.50;63.90;;;;;;5033261;28;20626;-29
2023/10/06 03:58:48;;;;;;;11.20;4.00;;;14.50;63.90;;;;;;5037782;28;20298;-28
2023/10/06 04:01:26;;;;;;;9.10;3.47;;;14.50;63.90;;;;;;5027945;28;20316;-28
2023/10/06 04:03:53;;;;;;;12.23;4.00;;;14.50;63.90;;;;;;5046911;28;20212;-28
2023/10/06 04:06:23;;;;;;;11.30;3.97;;;14.50;63.90;;;;;;5046346;28;20255;-28
2023/10/06 04:08:53;;;;;;;9.03;3.83;;;14.50;63.90;;;;;;5046754;28;20220;-28
2023/10/06 04:11:23;;;;;;;13.00;4.73;;;14.50;63.90;;;;;;5028763;28;20219;-28
2023/10/06 04:13:50;;;;;;;8.97;3.97;;;14.50;64.00;;;;;;5024590;28;20892;-28
2023/10/06 04:16:19;;;;;;;10.23;3.73;;;14.50;64.00;;;;;;5034828;28;20201;-28
2023/10/06 04:18:49;;;;;;;8.17;4.30;;;14.50;64.00;;;;;;5027920;28;20213;-28
2023/10/06 04:21:17;;;;;;;13.23;3.97;;;14.50;64.00;;;;;;5043530;28;20627;-28
2023/10/06 04:23:46;;;;;;;7.93;3.73;;;14.50;64.00;;;;;;5031127;28;20278;-28
2023/10/06 04:26:16;;;;;;;5.10;3.27;;;14.50;64.10;;;;;;5035887;28;20203;-28
2023/10/06 04:28:50;;;;;;;9.50;3.73;;;14.50;64.10;;;;;;5046294;28;20224;-28
2023/10/06 04:31:22;;;;;;;8.70;3.57;;;14.50;64.10;;;;;;5026873;28;20267;-28
2023/10/06 04:33:53;;;;;;;8.20;3.10;;;14.50;64.20;;;;;;5027738;28;20635;-28
2023/10/06 04:36:24;;;;;;;11.27;3.83;;;14.50;64.20;;;;;;5026627;28;20201;-28
2023/10/06 04:38:54;;;;;;;10.90;4.40;;;14.50;64.20;;;;;;5008168;28;20213;-28
2023/10/06 04:41:24;;;;;;;13.10;3.97;;;14.50;64.20;;;;;;5038261;28;20215;-28
2023/10/06 04:43:53;;;;;;;9.47;3.73;;;14.50;64.20;;;;;;5032047;28;20981;-28
2023/10/06 04:46:23;;;;;;;6.47;3.70;;;14.50;64.20;;;;;;5023903;28;20207;-28
2023/10/06 04:48:52;;;;;;;8.40;3.90;;;14.50;64.20;;;;;;5025898;28;20282;-30
2023/10/06 04:51:21;;;;;;;9.77;3.90;;;14.50;64.20;;;;;;5039604;28;20299;-30
2023/10/06 04:53:48;;;;;;;8.60;4.40;;;14.50;64.20;;;;;;5044409;28;20204;-30
2023/10/06 04:56:16;;;;;;;9.97;4.33;;;14.50;64.20;;;;;;5026542;28;20209;-30
2023/10/06 04:58:48;;;;;;;10.10;3.90;;;14.50;64.30;;;;;;5024605;28;20236;-30
2023/10/06 05:01:16;;;;;;;8.73;4.37;;;14.50;64.50;;;;;;5027934;28;20239;-30
2023/10/06 05:03:48;;;;;;;11.43;4.13;;;14.40;64.20;;;;;;5036011;28;20734;-30
2023/10/06 05:06:21;;;;;;;10.77;4.00;;;14.50;64.30;;;;;;5028408;28;20240;-30
2023/10/06 05:08:51;;;;;;;9.90;4.20;;;14.50;64.30;;;;;;5003497;28;20224;-30
2023/10/06 05:11:23;;;;;;;10.83;3.87;;;14.40;64.30;;;;;;5034130;28;20214;-30
2023/10/06 05:13:53;;;;;;;12.03;3.97;;;14.40;64.30;;;;;;5024849;28;20269;-30
2023/10/06 05:16:23;;;;;;;7.37;4.40;;;14.40;64.30;;;;;;5024205;28;20205;-30
2023/10/06 05:18:53;;;;;;;13.17;4.10;;;14.40;64.30;;;;;;5028288;28;20213;-30
2023/10/06 05:21:21;;;;;;;11.70;4.50;;;14.40;64.40;;;;;;5033852;28;20781;-30
2023/10/06 05:23:48;;;;;;;12.17;4.03;;;14.40;64.40;;;;;;5028682;28;20207;-30
2023/10/06 05:26:15;;;;;;;13.67;4.43;;;14.30;64.30;;;;;;5027709;28;20212;-30
2023/10/06 05:28:50;;;;;;;13.50;4.00;;;14.30;64.40;;;;;;5027666;28;20206;-30
2023/10/06 05:31:17;;;;;;;11.40;4.77;;;14.30;64.40;;;;;;5034118;28;20193;-30
2023/10/06 05:33:47;;;;;;;9.20;4.70;;;14.30;64.40;;;;;;5024149;28;20193;-30
2023/10/06 05:36:14;;;;;;;11.50;4.60;;;14.30;64.50;;;;;;5038727;28;20212;-30
2023/10/06 05:38:49;;;;;;;14.73;4.23;;;14.30;64.50;;;;;;5041567;28;20227;-30
2023/10/06 05:41:19;;;;;;;10.83;4.13;;;14.20;64.50;;;;;;5041295;28;20663;-30
2023/10/06 05:43:51;;;;;;;12.67;5.97;;;14.20;64.50;;;;;;5027310;28;20343;-30
2023/10/06 05:46:19;;;;;;;15.20;4.57;;;14.20;64.50;;;;;;5024057;28;20677;-30
2023/10/06 05:48:50;;;;;;;8.10;4.60;;;14.20;64.50;;;;;;5025336;28;20308;-30
2023/10/06 05:51:21;;;;;;;12.93;4.70;;;14.20;64.50;;;;;;5025530;28;20205;-30
2023/10/06 05:53:48;;;;;;;11.07;4.47;;;14.20;64.60;;;;;;5043175;28;20219;-30
2023/10/06 05:56:20;;;;;;;11.23;4.80;;;14.20;64.60;;;;;;5022600;28;20237;-30
2023/10/06 05:58:49;;;;;;;12.17;4.63;;;14.10;64.60;;;;;;5030512;28;20694;-30
2023/10/06 06:01:21;;;;;;;14.57;4.47;;;14.10;64.60;;;;;;5044064;28;20240;-30
2023/10/06 06:03:51;;;;;;;13.57;4.87;;;14.10;64.60;;;;;;5026814;28;20287;-30
2023/10/06 06:06:27;;;;;;;13.03;4.57;;;14.10;64.60;;;;;;5026622;28;20548;-30
2023/10/06 06:08:55;;;;;;;14.87;4.70;;;14.10;64.60;;;;;;5039535;28;20235;-30
2023/10/06 06:11:31;;;;;;;14.70;4.73;;;14.10;64.70;;;;;;5036664;28;20208;-30
2023/10/06 06:14:00;;;;;;;14.13;5.27;;;14.10;64.80;;;;;;5029148;28;20212;-30
2023/10/06 06:16:46;;;;;;;13.20;5.03;;;14.10;64.80;;;;;;5039890;28;20192;-30
2023/10/06 06:19:18;;;;;;;13.97;5.30;;;14.10;64.80;;;;;;5047425;28;20204;-30
2023/10/06 06:21:52;;;;;;;14.70;4.70;;;14.10;64.90;;;;;;5039812;28;20200;-30
2023/10/06 06:24:22;;;;;;;12.97;4.60;;;14.10;64.90;;;;;;5046636;28;20274;-30
2023/10/06 06:26:52;;;;;;;13.27;4.90;;;14.10;64.80;;;;;;5027407;28;20201;-30
2023/10/06 06:29:19;;;;;;;13.07;5.27;;;14.10;64.90;;;;;;5027217;28;20244;-30
2023/10/06 06:31:52;;;;;;;12.77;5.20;;;14.20;65.00;;;;;;5028956;28;20203;-30
2023/10/06 06:34:23;;;;;;;17.70;5.50;;;14.20;65.00;;;;;;5027296;28;20228;-30
2023/10/06 06:36:53;;;;;;;17.67;5.03;;;14.20;65.10;;;;;;5032051;28;20239;-30
2023/10/06 06:39:21;;;;;;;14.77;5.20;;;14.20;65.10;;;;;;5028402;28;20216;-30
2023/10/06 06:41:53;;;;;;;14.90;5.57;;;14.20;65.10;;;;;;5026569;28;20668;-30
2023/10/06 06:44:25;;;;;;;11.33;5.17;;;14.20;65.10;;;;;;5026366;28;20209;-30
2023/10/06 06:46:55;;;;;;;12.03;5.10;;;14.30;65.20;;;;;;5033827;28;20200;-30
2023/10/06 06:49:26;;;;;;;21.23;5.87;;;14.30;65.30;;;;;;5021133;28;20236;-30
2023/10/06 06:51:53;;;;;;;13.30;5.57;;;14.30;65.30;;;;;;5025335;28;20205;-30
2023/10/06 06:54:23;;;;;;;17.83;5.67;;;14.30;65.30;;;;;;5010234;28;20192;-30
2023/10/06 06:56:51;;;;;;;13.17;5.60;;;14.30;65.30;;;;;;5035451;28;20197;-30
2023/10/06 06:59:19;;;;;;;20.63;5.47;;;14.30;65.30;;;;;;5024355;28;20217;-30
2023/10/06 07:01:47;;;;;;;16.97;5.90;;;14.40;65.40;;;;;;5040993;28;20319;-30
2023/10/06 07:04:25;;;;;;;15.27;5.50;;;14.40;65.40;;;;;;5046497;28;20192;-30
2023/10/06 07:06:53;;;;;;;18.40;5.80;;;14.40;65.40;;;;;;5034047;28;20223;-30
2023/10/06 07:09:21;;;;;;;20.60;6.40;;;14.40;65.40;;;;;;5025498;28;20730;-30
2023/10/06 07:11:51;;;;;;;14.23;5.83;;;14.50;65.50;;;;;;5035946;28;20702;-30
2023/10/06 07:14:18;;;;;;;17.70;6.07;;;14.50;65.30;;;;;;5042610;28;20288;-28
2023/10/06 07:16:47;;;;;;;17.53;5.97;;;14.50;65.50;;;;;;5026062;28;20209;-30
2023/10/06 07:19:17;;;;;;;20.37;5.73;;;14.60;65.60;;;;;;5027070;28;20757;-30
2023/10/06 07:21:47;;;;;;;14.17;5.80;;;14.60;65.60;;;;;;5026156;28;20743;-30
2023/10/06 07:24:14;;;;;;;10.20;5.43;;;14.70;65.60;;;;;;5030169;28;20217;-30
2023/10/06 07:26:50;;;;;;;18.23;6.47;;;14.70;65.70;;;;;;5025989;28;20227;-30
2023/10/06 07:29:20;;;;;;;13.83;5.90;;;14.70;65.70;;;;;;5033595;28;20212;-30
2023/10/06 07:31:54;;;;;;;18.70;6.13;;;14.80;65.90;;;;;;5030318;28;20209;-30
2023/10/06 07:34:21;;;;;;;23.00;6.27;;;14.80;65.80;;;;;;5047784;28;20204;-30
2023/10/06 07:36:48;;;;;;;19.93;6.43;;;14.90;65.80;;;;;;5043225;28;20197;-34
2023/10/06 07:39:20;;;;;;;12.63;5.57;;;14.90;65.80;;;;;;5025673;28;20766;-30
2023/10/06 07:41:48;;;;;;;20.30;5.60;;;15.00;65.90;;;;;;5026882;28;20224;-30
2023/10/06 07:44:15;;;;;;;14.87;5.97;;;15.00;65.80;;;;;;5033864;28;20308;-30
2023/10/06 07:46:42;;;;;;;58.87;8.80;;;15.10;66.00;;;;;;5030041;28;20212;-30
2023/10/06 07:49:11;;;;;;;59.77;9.53;;;15.10;66.00;;;;;;5045404;28;20216;-30
2023/10/06 07:51:43;;;;;;;70.33;12.03;;;15.20;66.00;;;;;;5041190;28;20478;-30
2023/10/06 07:54:12;;;;;;;28.47;7.50;;;15.20;66.00;;;;;;5047000;28;20204;-30
2023/10/06 07:56:42;;;;;;;27.40;6.73;;;15.30;66.10;;;;;;5033863;28;20219;-30
2023/10/06 07:59:11;;;;;;;39.27;8.00;;;15.30;66.20;;;;;;5046181;28;20773;-30
2023/10/06 08:01:39;;;;;;;32.20;7.17;;;15.30;66.10;;;;;;5023324;28;20331;-30
2023/10/06 08:04:07;;;;;;;31.53;7.37;;;15.40;66.10;;;;;;5025539;28;20209;-30
2023/10/06 08:06:37;;;;;;;52.17;8.70;;;15.50;66.20;;;;;;5027252;28;20594;-30
2023/10/06 08:09:05;;;;;;;25.73;6.47;;;15.50;66.20;;;;;;5017797;28;20279;-32
2023/10/06 08:11:39;;;;;;;46.93;9.50;;;15.60;66.30;;;;;;5015347;28;20236;-33
2023/10/06 08:14:13;;;;;;;77.03;11.07;;;15.70;66.30;;;;;;5039170;28;20231;-33
2023/10/06 08:16:45;;;;;;;15.20;5.30;;;15.70;66.30;;;;;;5027615;28;20216;-30
2023/10/06 08:19:13;;;;;;;15.20;5.30;;;15.80;66.40;;;;;;5032641;28;20843;-30
2023/10/06 08:21:41;;;;;;;14.17;5.60;;;15.90;66.40;;;;;;5026537;28;20713;-30
2023/10/06 08:24:09;;;;;;;22.50;5.80;;;15.90;66.50;;;;;;5025679;28;20201;-30
2023/10/06 08:26:39;;;;;;;24.47;6.20;;;16.00;66.60;;;;;;5027292;28;20392;-30
2023/10/06 08:29:06;;;;;;;41.70;7.60;;;16.10;66.50;;;;;;5026251;28;20742;-30
2023/10/06 08:31:38;;;;;;;41.30;8.00;;;16.20;66.50;;;;;;5034353;28;20224;-30
2023/10/06 08:34:06;;;;;;;33.70;7.13;;;16.30;66.60;;;;;;5044857;28;20196;-29
2023/10/06 08:36:41;;;;;;;45.83;8.67;;;16.30;66.40;;;;;;5028895;28;20209;-30
2023/10/06 08:39:13;;;;;;;47.15;8.02;;;16.40;66.50;;;;;;5027076;28;20211;-30
2023/10/06 08:41:47;;;;;;;33.47;7.37;;;16.50;66.50;;;;;;5028170;28;20216;-30
2023/10/06 08:44:19;;;;;;;54.92;9.43;;;16.50;66.50;;;;;;5026245;28;20233;-29
2023/10/06 08:46:47;;;;;;;45.73;9.03;;;16.60;66.60;;;;;;5025910;28;20204;-29
2023/10/06 08:49:19;;;;;;;28.67;6.65;;;16.70;66.60;;;;;;5025796;28;20204;-33
2023/10/06 08:51:50;;;;;;;39.25;8.55;;;16.70;66.60;;;;;;5028398;28;20311;-33
2023/10/06 08:54:21;;;;;;;52.75;8.40;;;16.80;66.50;;;;;;5041208;28;20586;-33
2023/10/06 08:56:50;;;;;;;18.73;5.50;;;16.90;66.50;;;;;;5028599;28;20196;-33
2023/10/06 08:59:20;;;;;;;17.33;5.68;;;16.90;66.50;;;;;;5040900;28;20757;-32
2023/10/06 09:01:47;;;;;;;16.02;5.28;;;17.00;66.50;;;;;;5041978;28;20238;-32
2023/10/06 09:04:22;;;;;;;12.85;4.85;;;17.00;66.30;;;;;;5026346;28;20220;-33
2023/10/06 09:07:16;;;;;;;12.15;4.80;;;17.10;66.50;;;;;;5029651;28;20302;-29
2023/10/06 09:09:43;;;;;;;13.52;5.20;;;17.10;66.50;;;;;;5044962;28;20242;-29
2023/10/06 09:12:26;;;;;;;11.73;5.10;;;17.20;66.50;;;;;;5027009;28;20213;-29
2023/10/06 09:14:55;;;;;;;12.55;5.07;;;17.20;66.40;;;;;;5043409;28;20226;-29
2023/10/06 09:17:33;;;;;;;16.05;4.93;;;17.30;66.50;;;;;;5027007;28;20205;-29
2023/10/06 09:20:03;;;;;;;11.88;5.03;;;17.40;66.50;;;;;;5025593;28;20227;-29
2023/10/06 09:22:51;;;;;;;15.63;5.25;;;17.40;66.50;;;;;;5039632;28;20676;-29
2023/10/06 09:25:19;;;;;;;12.50;4.80;;;17.50;66.50;;;;;;5030030;28;20217;-29
2023/10/06 09:27:48;;;;;;;22.55;5.05;;;17.50;66.60;;;;;;5026207;28;20271;-29
2023/10/06 09:30:20;;;;;;;14.52;4.90;;;17.60;66.50;;;;;;5031609;28;20306;-29
2023/10/06 09:33:04;;;;;;;13.00;4.75;;;17.60;66.50;;;;;;5038781;28;20228;-33
2023/10/06 09:35:36;;;;;;;12.82;4.50;;;17.70;67.30;;;;;;5025552;28;20211;-33
2023/10/06 09:38:13;;;;;;;14.13;4.60;;;17.80;66.60;;;;;;5025293;28;20189;-33
2023/10/06 09:40:44;;;;;;;10.55;5.07;;;17.80;66.50;;;;;;5029038;28;20673;-33
2023/10/06 09:43:15;;;;;;;9.48;4.25;;;17.90;66.50;;;;;;5022620;28;20246;-33
2023/10/06 09:45:44;;;;;;;10.55;4.30;;;17.90;66.40;;;;;;5041632;28;20208;-33
2023/10/06 09:48:19;;;;;;;12.40;4.97;;;18.00;66.50;;;;;;5029545;28;20212;-33
2023/10/06 09:50:46;;;;;;;13.32;4.68;;;18.00;66.50;;;;;;5045801;28;20553;-33
2023/10/06 09:53:17;;;;;;;11.20;4.75;;;18.10;66.50;;;;;;5040498;28;20448;-30
2023/10/06 09:55:52;;;;;;;15.88;4.45;;;18.10;66.50;;;;;;5036286;28;20752;-31
2023/10/06 09:58:22;;;;;;;9.93;4.13;;;18.20;66.50;;;;;;5040141;28;20236;-31
2023/10/06 10:00:49;;;;;;;12.93;4.43;;;18.30;66.60;;;;;;5028553;28;20240;-31
2023/10/06 10:03:18;;;;;;;13.10;4.40;;;18.30;66.50;;;;;;5038225;28;20219;-31
2023/10/06 10:05:48;;;;;;;11.70;4.45;;;18.40;66.60;;;;;;5037338;28;20234;-31
2023/10/06 10:08:16;;;;;;;10.93;4.40;;;18.40;66.60;;;;;;5027146;28;20288;-31
2023/10/06 10:10:48;;;;;;;13.80;4.40;;;18.50;66.60;;;;;;5034720;28;20224;-31
2023/10/06 10:13:23;;;;;;;11.90;4.15;;;18.50;66.50;;;;;;5035465;28;20215;-31
2023/10/06 10:16:16;;;;;;;7.20;3.50;;;18.60;66.60;;;;;;5028596;28;20219;-31
2023/10/06 10:19:03;;;;;;;11.43;3.72;;;18.70;66.60;;;;;;5030118;28;20211;-31
2023/10/06 10:21:34;;;;;;;11.10;3.92;;;18.70;66.50;;;;;;5030575;28;20205;-33
2023/10/06 10:24:07;;;;;;;12.63;3.88;;;18.80;66.60;;;;;;5032406;28;20367;-33
2023/10/06 10:27:02;;;;;;;12.52;3.80;;;18.90;66.60;;;;;;5031323;28;20193;-34
2023/10/06 10:29:31;;;;;;;10.82;3.80;;;18.90;66.60;;;;;;5031904;28;20284;-31
2023/10/06 10:32:24;;;;;;;9.52;3.80;;;19.00;66.70;;;;;;5041995;28;20749;-31
2023/10/06 10:35:13;;;;;;;7.07;2.90;;;19.10;66.70;;;;;;5044323;28;20282;-31
2023/10/06 10:38:02;;;;;;;6.40;2.90;;;19.20;66.70;;;;;;5038314;28;20235;-31
2023/10/06 10:40:46;;;;;;;7.80;3.53;;;19.20;66.50;;;;;;5029216;28;20259;-31
2023/10/06 10:43:17;;;;;;;9.07;3.38;;;19.30;66.50;;;;;;5036881;28;20220;-31
2023/10/06 10:45:47;;;;;;;9.27;2.88;;;19.40;66.50;;;;;;5039036;28;20293;-31
2023/10/06 10:48:15;;;;;;;10.18;3.17;;;19.40;66.40;;;;;;5040429;28;21018;-31
2023/10/06 10:51:05;;;;;;;9.43;3.20;;;19.40;66.40;;;;;;5028640;28;20220;-31
2023/10/06 10:53:44;;;;;;;9.95;3.30;;;19.50;66.50;;;;;;5036833;28;20209;-31
2023/10/06 10:56:25;;;;;;;8.65;2.95;;;19.60;66.50;;;;;;5033389;28;20196;-31
2023/10/06 10:58:58;;;;;;;13.93;3.90;;;19.60;66.50;;;;;;5033606;28;20749;-31
2023/10/06 11:01:27;;;;;;;11.98;3.63;;;19.70;66.60;;;;;;5043226;28;20228;-31
2023/10/06 11:06:58;;;;;;;7.20;3.28;;;19.80;66.50;;;;;;5031731;28;20220;-31
2023/10/06 11:09:39;;;;;;;9.32;3.13;;;19.90;66.60;;;;;;5028735;28;20800;-31
2023/10/06 11:12:24;;;;;;;9.43;2.78;;;20.00;66.50;;;;;;5032702;28;20670;-31
2023/10/06 11:14:56;;;;;;;9.00;3.10;;;20.00;66.00;;;;;;5033969;28;20682;-33
2023/10/06 11:17:29;;;;;;;7.30;2.88;;;20.10;66.30;;;;;;5042264;28;20259;-33
2023/10/06 11:20:13;;;;;;;8.82;2.92;;;20.10;66.00;;;;;;5047454;28;20219;-33
2023/10/06 11:22:54;;;;;;;13.35;2.85;;;20.10;66.10;;;;;;5040466;28;20204;-31
2023/10/06 11:25:28;;;;;;;14.00;3.00;;;20.20;66.10;;;;;;5030134;28;20218;-31
2023/10/06 11:28:03;;;;;;;11.02;3.35;;;20.30;66.10;;;;;;5040401;28;20201;-31
2023/10/06 11:30:35;;;;;;;9.77;3.20;;;20.30;66.00;;;;;;5043961;28;20212;-32
2023/10/06 11:33:06;;;;;;;8.82;3.47;;;20.40;66.20;;;;;;5028242;28;20381;-32
2023/10/06 11:35:40;;;;;;;9.32;2.95;;;20.40;66.00;;;;;;5027057;28;20810;-32
2023/10/06 11:38:15;;;;;;;7.93;3.00;;;20.50;66.00;;;;;;5028391;28;20282;-31
2023/10/06 11:40:48;;;;;;;13.35;3.70;;;20.50;65.90;;;;;;5040529;28;20220;-31
2023/10/06 11:43:21;;;;;;;10.07;3.60;;;20.50;65.60;;;;;;5035930;28;20212;-32
2023/10/06 11:46:01;;;;;;;12.07;3.55;;;20.60;65.40;;;;;;5040323;28;20212;-31
2023/10/06 11:48:31;;;;;;;12.80;3.70;;;20.60;65.10;;;;;;5024891;28;20209;-31
2023/10/06 11:51:06;;;;;;;5.40;3.03;;;20.60;65.10;;;;;;5038951;28;20286;-31
2023/10/06 11:53:40;;;;;;;9.70;3.22;;;20.60;65.20;;;;;;5035310;28;20213;-31
2023/10/06 11:56:19;;;;;;;8.52;3.58;;;20.60;65.00;;;;;;5027188;28;20267;-32
2023/10/06 11:58:51;;;;;;;17.63;3.65;;;20.60;64.80;;;;;;5033914;28;20212;-32
2023/10/06 12:01:32;;;;;;;13.90;3.50;;;20.60;64.80;;;;;;5026128;28;20243;-32
2023/10/06 12:04:32;;;;;;;20.00;4.32;;;20.60;64.70;;;;;;5032334;28;20200;-32
2023/10/06 12:07:01;;;;;;;18.42;4.32;;;20.60;64.80;;;;;;5041878;28;20286;-31
2023/10/06 12:09:35;;;;;;;36.15;6.80;;;20.60;64.80;;;;;;5025650;28;20749;-31
2023/10/06 12:12:02;;;;;;;15.35;4.60;;;20.60;64.80;;;;;;5024065;28;20318;-31
2023/10/06 12:14:33;;;;;;;20.42;4.30;;;20.60;64.70;;;;;;5041930;28;20236;-31
2023/10/06 12:17:01;;;;;;;13.40;3.58;;;20.60;64.50;;;;;;5037644;28;20295;-31
2023/10/06 12:19:31;;;;;;;29.13;5.40;;;20.60;64.30;;;;;;5033521;28;20200;-31
2023/10/06 12:21:59;;;;;;;29.70;5.03;;;20.60;64.40;;;;;;5046318;28;20196;-31
2023/10/06 12:24:31;;;;;;;28.02;4.95;;;20.60;64.30;;;;;;5031041;28;20225;-31
2023/10/06 12:26:58;;;;;;;42.88;6.63;;;20.60;64.50;;;;;;5025484;28;20311;-31
2023/10/06 12:29:31;;;;;;;40.15;6.68;;;20.60;64.30;;;;;;5034397;28;20297;-31
2023/10/06 12:32:01;;;;;;;10.68;3.60;;;20.70;64.20;;;;;;5042362;28;20220;-31
2023/10/06 12:34:31;;;;;;;10.60;3.08;;;20.70;63.90;;;;;;5042072;28;20521;-31
2023/10/06 12:37:03;;;;;;;25.48;4.10;;;20.70;63.90;;;;;;5025744;28;20205;-32
2023/10/06 12:39:34;;;;;;;33.17;6.20;;;20.70;64.10;;;;;;5032993;28;20216;-32
2023/10/06 12:42:07;;;;;;;9.02;3.08;;;20.70;64.10;;;;;;5042523;28;20224;-31
2023/10/06 12:44:39;;;;;;;29.23;4.65;;;20.70;64.20;;;;;;5034499;28;20226;-31
2023/10/06 12:47:14;;;;;;;9.95;2.83;;;20.70;64.10;;;;;;5027114;28;20406;-31
2023/10/06 12:49:45;;;;;;;8.57;2.45;;;20.70;64.00;;;;;;5030363;28;20235;-31
2023/10/06 12:52:12;;;;;;;10.93;3.20;;;20.70;64.00;;;;;;5039703;28;20234;-31
2023/10/06 12:54:41;;;;;;;10.95;3.30;;;20.60;64.00;;;;;;5035837;28;20208;-31
2023/10/06 12:57:12;;;;;;;16.55;3.35;;;20.70;64.10;;;;;;5045176;28;20196;-31
2023/10/06 12:59:40;;;;;;;11.90;2.75;;;20.70;64.00;;;;;;5038650;28;20702;-31
2023/10/06 13:02:07;;;;;;;6.57;2.60;;;20.70;63.40;;;;;;5042461;28;20236;-31
2023/10/06 13:04:36;;;;;;;10.18;2.65;;;20.70;63.70;;;;;;5027436;28;20212;-32
2023/10/06 13:07:04;;;;;;;5.43;2.53;;;20.70;63.70;;;;;;5022838;28;20412;-31
2023/10/06 13:09:35;;;;;;;8.13;2.50;;;20.70;63.70;;;;;;5026220;28;20291;-31
2023/10/06 13:12:04;;;;;;;11.20;3.10;;;20.70;63.40;;;;;;5022387;28;20224;-31
2023/10/06 13:14:35;;;;;;;6.82;2.70;;;20.70;63.40;;;;;;5012145;28;20314;-31
2023/10/06 13:17:12;;;;;;;14.05;3.22;;;20.70;63.40;;;;;;5030257;28;20282;-31
2023/10/06 13:19:42;;;;;;;10.40;3.15;;;20.70;63.50;;;;;;5027059;28;20281;-32
2023/10/06 13:22:09;;;;;;;11.02;3.10;;;20.70;63.40;;;;;;5025277;28;20216;-32
2023/10/06 13:24:39;;;;;;;12.73;3.38;;;20.70;63.40;;;;;;5021678;28;20642;-29